Time;durP1;ratioP1;P1;durP2;ratioP2;P2;SDS_P1;SDS_P2;PMS_P1;PMS_P2;Temp;Humidity;BMP_temperature;BMP_pressure;BME280_temperature;BME280_humidity;BME280_pressure;Samples;Min_cycle;Max_cycle;Signal;HPM_P1;HPM_P2
2023/07/25 00:00:35;;;;;;;5.90;0.93;;;;;;;;;;5065321;28;20043;-74
2023/07/25 00:03:05;;;;;;;5.32;0.77;;;;;;;;;;5066155;28;20514;-73
2023/07/25 00:05:36;;;;;;;2.58;0.60;;;;;;;;;;5066297;28;20052;-74
2023/07/25 00:08:07;;;;;;;4.30;0.90;;;;;;;;;;5065924;28;20399;-74
2023/07/25 00:10:38;;;;;;;6.00;0.77;;;;;;;;;;5066248;28;20054;-74
2023/07/25 00:13:09;;;;;;;4.45;0.80;;;;;;;;;;5064000;28;20041;-74
2023/07/25 00:15:39;;;;;;;1.13;0.50;;;;;;;;;;5064120;28;20056;-74
2023/07/25 00:18:11;;;;;;;2.97;0.68;;;;;;;;;;5064805;28;20526;-74
2023/07/25 00:20:47;;;;;;;4.80;0.88;;;;;;;;;;5064026;28;20060;-74
2023/07/25 00:23:17;;;;;;;3.25;0.63;;;;;;;;;;5064079;28;20052;-73
2023/07/25 00:25:48;;;;;;;4.78;0.85;;;;;;;;;;5063239;28;20052;-72
2023/07/25 00:28:20;;;;;;;5.72;1.00;;;;;;;;;;5065129;28;20048;-74
2023/07/25 00:30:50;;;;;;;4.60;1.25;;;;;;;;;;5065299;28;20044;-74
2023/07/25 00:33:21;;;;;;;3.35;1.10;;;;;;;;;;5063311;28;20055;-74
2023/07/25 00:35:52;;;;;;;6.88;1.10;;;;;;;;;;5061977;28;20737;-74
2023/07/25 00:38:23;;;;;;;6.72;1.20;;;;;;;;;;5064772;28;20500;-73
2023/07/25 00:40:54;;;;;;;7.35;1.20;;;;;;;;;;5064788;28;20044;-73
2023/07/25 00:43:24;;;;;;;5.78;1.15;;;;;;;;;;5062242;28;20055;-74
2023/07/25 00:45:54;;;;;;;4.10;0.75;;;;;;;;;;5063636;28;20418;-74
2023/07/25 00:48:25;;;;;;;9.73;1.10;;;;;;;;;;5065277;28;20067;-73
2023/07/25 00:50:56;;;;;;;8.02;1.50;;;;;;;;;;5062868;28;20060;-74
2023/07/25 00:53:28;;;;;;;7.63;1.10;;;;;;;;;;5062227;28;20060;-74
2023/07/25 00:55:58;;;;;;;10.13;1.17;;;;;;;;;;5058137;28;20055;-74
2023/07/25 00:58:29;;;;;;;7.45;1.15;;;;;;;;;;5061258;28;20534;-74
2023/07/25 01:01:05;;;;;;;7.70;1.15;;;;;;;;;;5063654;28;20048;-74
2023/07/25 01:03:37;;;;;;;4.47;1.17;;;;;;;;;;5062356;28;20533;-74
2023/07/25 01:06:15;;;;;;;5.90;2.08;;;;;;;;;;5062704;28;20049;-74
2023/07/25 01:08:55;;;;;;;5.30;0.88;;;;;;;;;;5064208;28;20504;-75
2023/07/25 01:11:28;;;;;;;4.15;0.93;;;;;;;;;;5046699;28;20067;-74
2023/07/25 01:13:59;;;;;;;8.15;1.85;;;;;;;;;;5062737;28;20791;-75
2023/07/25 01:16:30;;;;;;;5.00;1.75;;;;;;;;;;5063257;28;20068;-74
2023/07/25 01:19:00;;;;;;;7.50;1.42;;;;;;;;;;5064684;28;20040;-74
2023/07/25 01:21:32;;;;;;;4.40;0.82;;;;;;;;;;5064510;28;20076;-76
2023/07/25 01:24:04;;;;;;;4.43;1.08;;;;;;;;;;5050080;28;20523;-75
2023/07/25 01:26:34;;;;;;;5.47;0.82;;;;;;;;;;5042186;28;20053;-76
2023/07/25 01:29:05;;;;;;;3.65;1.08;;;;;;;;;;5042407;28;20049;-79
2023/07/25 01:31:36;;;;;;;7.20;1.45;;;;;;;;;;5042127;28;20071;-74
2023/07/25 01:34:07;;;;;;;7.45;0.90;;;;;;;;;;5042840;28;20530;-75
2023/07/25 01:36:38;;;;;;;8.85;1.40;;;;;;;;;;5037748;28;20502;-74
2023/07/25 01:39:10;;;;;;;7.13;1.90;;;;;;;;;;5040111;28;20084;-75
2023/07/25 01:41:42;;;;;;;9.07;1.42;;;;;;;;;;5039336;28;20064;-74
2023/07/25 01:44:13;;;;;;;7.68;1.15;;;;;;;;;;5039023;28;20409;-74
2023/07/25 01:46:43;;;;;;;8.77;1.27;;;;;;;;;;5039386;28;20060;-75
2023/07/25 01:49:13;;;;;;;9.10;2.08;;;;;;;;;;5039920;28;20553;-74
2023/07/25 01:51:44;;;;;;;7.43;0.98;;;;;;;;;;5039558;28;20060;-75
2023/07/25 01:54:16;;;;;;;3.80;1.15;;;;;;;;;;5039837;28;20060;-75
2023/07/25 01:56:48;;;;;;;11.27;1.27;;;;;;;;;;5040608;28;20059;-75
2023/07/25 01:59:19;;;;;;;5.57;1.25;;;;;;;;;;5038633;28;20045;-75
2023/07/25 02:01:50;;;;;;;9.77;1.60;;;;;;;;;;5038973;28;20463;-75
2023/07/25 02:04:22;;;;;;;5.10;1.02;;;;;;;;;;5038953;28;20057;-74
2023/07/25 02:06:52;;;;;;;9.77;1.70;;;;;;;;;;5041093;28;20040;-74
2023/07/25 02:09:23;;;;;;;13.05;1.90;;;;;;;;;;5040092;28;20616;-75
2023/07/25 02:11:54;;;;;;;11.57;1.70;;;;;;;;;;5041319;28;20052;-75
2023/07/25 02:14:25;;;;;;;10.10;1.27;;;;;;;;;;5041412;28;20443;-74
2023/07/25 02:16:56;;;;;;;9.88;1.10;;;;;;;;;;5041267;28;20548;-75
2023/07/25 02:19:28;;;;;;;7.65;1.40;;;;;;;;;;5040891;28;20528;-75
2023/07/25 02:21:57;;;;;;;11.07;1.30;;;;;;;;;;5041519;28;20099;-75
2023/07/25 02:24:30;;;;;;;9.77;1.58;;;;;;;;;;5042692;28;20405;-75
2023/07/25 02:27:01;;;;;;;11.70;1.40;;;;;;;;;;5041925;28;20095;-75
2023/07/25 02:29:31;;;;;;;11.77;1.58;;;;;;;;;;5041440;28;20508;-75
2023/07/25 02:32:01;;;;;;;6.63;1.58;;;;;;;;;;5041667;28;20431;-75
2023/07/25 02:34:31;;;;;;;8.93;1.77;;;;;;;;;;5041255;28;20633;-75
2023/07/25 02:37:03;;;;;;;4.72;1.30;;;;;;;;;;5042970;28;20051;-75
2023/07/25 02:39:35;;;;;;;7.85;1.38;;;;;;;;;;5040641;28;20057;-75
2023/07/25 02:42:06;;;;;;;5.75;1.25;;;;;;;;;;5043240;28;20547;-74
2023/07/25 02:44:36;;;;;;;7.28;1.40;;;;;;;;;;5040873;28;20419;-75
2023/07/25 02:47:08;;;;;;;6.55;1.42;;;;;;;;;;5025404;28;20052;-75
2023/07/25 02:49:39;;;;;;;6.60;1.15;;;;;;;;;;5042797;28;20056;-74
2023/07/25 02:52:09;;;;;;;5.80;1.10;;;;;;;;;;5041226;28;20432;-75
2023/07/25 02:54:40;;;;;;;8.05;1.10;;;;;;;;;;5040985;28;20052;-75
2023/07/25 02:57:11;;;;;;;7.95;1.35;;;;;;;;;;5042214;28;20513;-75
2023/07/25 02:59:42;;;;;;;8.35;1.85;;;;;;;;;;5042021;28;20063;-75
2023/07/25 03:02:12;;;;;;;8.05;1.75;;;;;;;;;;5042327;28;20037;-75
2023/07/25 03:04:43;;;;;;;7.68;1.65;;;;;;;;;;5042660;28;21060;-75
2023/07/25 03:07:14;;;;;;;8.40;1.10;;;;;;;;;;5042564;28;20055;-75
2023/07/25 03:09:46;;;;;;;7.15;1.33;;;;;;;;;;5040909;28;20052;-74
2023/07/25 03:12:17;;;;;;;11.68;1.67;;;;;;;;;;5041864;28;20040;-75
2023/07/25 03:14:48;;;;;;;8.23;1.90;;;;;;;;;;5040882;28;20059;-75
2023/07/25 03:17:18;;;;;;;5.15;1.42;;;;;;;;;;5042113;28;20393;-75
2023/07/25 03:19:49;;;;;;;6.78;1.45;;;;;;;;;;5041133;28;20053;-74
2023/07/25 03:22:20;;;;;;;5.38;1.65;;;;;;;;;;5042779;28;20045;-74
2023/07/25 03:24:51;;;;;;;9.10;1.63;;;;;;;;;;5040026;28;20056;-74
2023/07/25 03:27:21;;;;;;;8.98;1.95;;;;;;;;;;5039914;28;20692;-75
2023/07/25 03:29:51;;;;;;;5.93;1.52;;;;;;;;;;5040526;28;20052;-75
2023/07/25 03:32:23;;;;;;;10.50;1.83;;;;;;;;;;5042246;28;20071;-75
2023/07/25 03:34:53;;;;;;;10.65;1.98;;;;;;;;;;5039591;28;20053;-75
2023/07/25 03:37:23;;;;;;;4.70;1.67;;;;;;;;;;5040374;28;20057;-75
2023/07/25 03:39:54;;;;;;;7.25;2.00;;;;;;;;;;5039802;28;20064;-75
2023/07/25 03:42:25;;;;;;;4.38;1.60;;;;;;;;;;5042077;28;20049;-75
2023/07/25 03:44:56;;;;;;;3.38;1.67;;;;;;;;;;5040595;28;20052;-75
2023/07/25 03:47:26;;;;;;;9.60;1.83;;;;;;;;;;5041179;28;20072;-74
2023/07/25 03:49:56;;;;;;;9.60;1.80;;;;;;;;;;5041666;28;20052;-75
2023/07/25 03:52:27;;;;;;;4.95;1.90;;;;;;;;;;5040378;28;20045;-75
2023/07/25 03:54:57;;;;;;;3.67;1.60;;;;;;;;;;5041694;28;20053;-75
2023/07/25 03:57:28;;;;;;;5.78;2.03;;;;;;;;;;5040996;28;20492;-75
2023/07/25 03:59:58;;;;;;;9.50;2.22;;;;;;;;;;5041306;28;20416;-75
2023/07/25 04:02:39;;;;;;;10.75;1.73;;;;;;;;;;5046801;28;20053;-75
2023/07/25 04:05:10;;;;;;;6.43;1.73;;;;;;;;;;5041550;28;20048;-75
2023/07/25 04:07:41;;;;;;;9.60;2.28;;;;;;;;;;5040159;28;20504;-76
2023/07/25 04:10:11;;;;;;;12.57;2.33;;;;;;;;;;5039730;28;20053;-75
2023/07/25 04:12:43;;;;;;;10.68;2.42;;;;;;;;;;5039993;28;20052;-74
2023/07/25 04:15:13;;;;;;;5.90;2.17;;;;;;;;;;5041620;28;20492;-75
2023/07/25 04:17:44;;;;;;;13.02;3.15;;;;;;;;;;5041980;28;20511;-75
2023/07/25 04:20:15;;;;;;;11.90;3.53;;;;;;;;;;5041735;28;20053;-74
2023/07/25 04:22:45;;;;;;;12.95;4.40;;;;;;;;;;5041441;28;20495;-75
2023/07/25 04:25:17;;;;;;;15.18;4.00;;;;;;;;;;5041621;28;20044;-75
2023/07/25 04:27:48;;;;;;;9.68;3.97;;;;;;;;;;5042708;28;20056;-74
2023/07/25 04:30:19;;;;;;;12.02;4.43;;;;;;;;;;5044795;28;20475;-74
2023/07/25 04:32:49;;;;;;;14.43;4.70;;;;;;;;;;5044142;28;20045;-74
2023/07/25 04:35:20;;;;;;;20.80;4.90;;;;;;;;;;5044986;28;20060;-75
2023/07/25 04:37:50;;;;;;;20.33;4.68;;;;;;;;;;5044808;28;20530;-74
2023/07/25 04:40:21;;;;;;;19.95;3.95;;;;;;;;;;5045281;28;20056;-74
2023/07/25 04:42:51;;;;;;;17.80;4.80;;;;;;;;;;5045099;28;20049;-75
2023/07/25 04:45:22;;;;;;;16.77;3.72;;;;;;;;;;5044938;28;20411;-75
2023/07/25 04:47:53;;;;;;;12.20;3.60;;;;;;;;;;5042932;28;20048;-75
2023/07/25 04:50:23;;;;;;;20.73;3.88;;;;;;;;;;5045182;28;20523;-74
2023/07/25 04:52:53;;;;;;;15.15;3.90;;;;;;;;;;5044494;28;20045;-74
2023/07/25 04:55:24;;;;;;;17.90;3.45;;;;;;;;;;5043945;28;20502;-74
2023/07/25 04:57:55;;;;;;;14.13;3.53;;;;;;;;;;5043477;28;20056;-75
2023/07/25 05:00:25;;;;;;;11.18;3.60;;;;;;;;;;5044000;28;20496;-75
2023/07/25 05:02:58;;;;;;;12.30;3.35;;;;;;;;;;5042728;28;20053;-75
2023/07/25 05:05:28;;;;;;;12.02;3.42;;;;;;;;;;5044146;28;20044;-75
2023/07/25 05:07:59;;;;;;;16.35;4.10;;;;;;;;;;5045017;28;20522;-75
2023/07/25 05:10:31;;;;;;;14.70;3.53;;;;;;;;;;5044052;28;20037;-74
2023/07/25 05:13:08;;;;;;;10.23;3.30;;;;;;;;;;5044741;28;20052;-75
2023/07/25 05:15:38;;;;;;;10.40;3.55;;;;;;;;;;5043005;28;20536;-75
2023/07/25 05:18:09;;;;;;;15.77;3.35;;;;;;;;;;5044680;28;20049;-78
2023/07/25 05:20:40;;;;;;;10.90;3.35;;;;;;;;;;5044738;28;20056;-75
2023/07/25 05:23:11;;;;;;;8.23;3.22;;;;;;;;;;5044450;28;20071;-75
2023/07/25 05:25:41;;;;;;;17.27;3.97;;;;;;;;;;5043494;28;20527;-75
2023/07/25 05:28:11;;;;;;;8.65;3.38;;;;;;;;;;5044521;28;20045;-74
2023/07/25 05:30:41;;;;;;;7.78;3.38;;;;;;;;;;5043801;28;20059;-75
2023/07/25 05:33:13;;;;;;;9.85;4.18;;;;;;;;;;5044708;28;20049;-75
2023/07/25 05:35:43;;;;;;;12.88;4.30;;;;;;;;;;5044188;28;20396;-75
2023/07/25 05:38:13;;;;;;;11.35;4.18;;;;;;;;;;5043964;28;20052;-74
2023/07/25 05:40:43;;;;;;;7.07;3.53;;;;;;;;;;5044248;28;20542;-75
2023/07/25 05:43:15;;;;;;;12.77;3.90;;;;;;;;;;5044198;28;20044;-75
2023/07/25 05:45:46;;;;;;;12.02;3.28;;;;;;;;;;5043573;28;20052;-75
2023/07/25 05:48:16;;;;;;;11.00;3.88;;;;;;;;;;5044149;28;20041;-75
2023/07/25 05:50:54;;;;;;;10.38;3.45;;;;;;;;;;5043416;28;20052;-75
2023/07/25 05:53:24;;;;;;;7.82;3.22;;;;;;;;;;5043368;28;20057;-75
2023/07/25 05:55:54;;;;;;;7.35;3.47;;;;;;;;;;5043167;28;20072;-75
2023/07/25 05:58:26;;;;;;;8.18;3.28;;;;;;;;;;5043361;28;20056;-75
2023/07/25 06:00:56;;;;;;;6.63;3.45;;;;;;;;;;5043612;28;20894;-75
2023/07/25 06:03:26;;;;;;;12.55;3.90;;;;;;;;;;5044023;28;20412;-75
2023/07/25 06:05:57;;;;;;;10.00;4.13;;;;;;;;;;5043576;28;20507;-74
2023/07/25 06:08:29;;;;;;;8.85;3.58;;;;;;;;;;5043312;28;20051;-75
2023/07/25 06:11:00;;;;;;;10.00;3.80;;;;;;;;;;5043620;28;20049;-75
2023/07/25 06:13:33;;;;;;;8.73;3.78;;;;;;;;;;5042809;28;20442;-75
2023/07/25 06:16:03;;;;;;;13.73;3.97;;;;;;;;;;5042672;28;20523;-75
2023/07/25 06:18:34;;;;;;;10.98;3.92;;;;;;;;;;5042998;28;20063;-76
2023/07/25 06:21:05;;;;;;;8.88;3.85;;;;;;;;;;5042805;28;20052;-75
2023/07/25 06:23:35;;;;;;;23.40;4.22;;;;;;;;;;5043386;28;20056;-74
2023/07/25 06:26:06;;;;;;;12.13;4.13;;;;;;;;;;5042833;28;20056;-74
2023/07/25 06:28:36;;;;;;;11.68;3.55;;;;;;;;;;5042813;28;20423;-74
2023/07/25 06:31:07;;;;;;;13.65;4.40;;;;;;;;;;5043233;28;20044;-75
2023/07/25 06:33:38;;;;;;;21.65;6.95;;;;;;;;;;5043045;28;20415;-75
2023/07/25 06:36:08;;;;;;;19.00;7.55;;;;;;;;;;5042955;28;20053;-74
2023/07/25 06:38:40;;;;;;;41.53;9.85;;;;;;;;;;5043801;28;20056;-74
2023/07/25 06:41:10;;;;;;;32.17;11.18;;;;;;;;;;5043596;28;20415;-74
2023/07/25 06:43:41;;;;;;;22.92;9.27;;;;;;;;;;5041010;28;20063;-74
2023/07/25 06:46:11;;;;;;;25.50;11.00;;;;;;;;;;5040258;28;20044;-74
2023/07/25 06:48:41;;;;;;;28.35;9.75;;;;;;;;;;5042919;28;20052;-75
2023/07/25 06:51:11;;;;;;;35.78;11.00;;;;;;;;;;5041507;28;20049;-75
2023/07/25 06:53:43;;;;;;;27.98;9.82;;;;;;;;;;5042413;28;20049;-75
2023/07/25 06:56:13;;;;;;;24.63;9.73;;;;;;;;;;5042250;28;20594;-74
2023/07/25 06:58:43;;;;;;;18.95;9.98;;;;;;;;;;5042323;28;20519;-74
2023/07/25 07:01:13;;;;;;;23.58;9.25;;;;;;;;;;5041908;28;20056;-74
2023/07/25 07:03:44;;;;;;;27.08;9.10;;;;;;;;;;5042163;28;20055;-74
2023/07/25 07:06:14;;;;;;;17.40;8.70;;;;;;;;;;5042939;28;20048;-73
2023/07/25 07:08:45;;;;;;;35.20;9.30;;;;;;;;;;5043276;28;20045;-74
2023/07/25 07:11:15;;;;;;;19.98;8.60;;;;;;;;;;5040749;28;20522;-74
2023/07/25 07:13:46;;;;;;;27.35;9.27;;;;;;;;;;5042550;28;20508;-73
2023/07/25 07:16:18;;;;;;;16.73;9.05;;;;;;;;;;5040670;28;20389;-74
2023/07/25 07:18:51;;;;;;;20.40;8.18;;;;;;;;;;5042225;28;20052;-74
2023/07/25 07:21:21;;;;;;;18.90;8.25;;;;;;;;;;5042225;28;20053;-74
2023/07/25 07:23:52;;;;;;;18.15;8.27;;;;;;;;;;5042381;28;20044;-74
2023/07/25 07:26:23;;;;;;;20.33;8.70;;;;;;;;;;5041667;28;20052;-74
2023/07/25 07:28:53;;;;;;;16.35;7.25;;;;;;;;;;5041906;28;20503;-74
2023/07/25 07:31:25;;;;;;;17.17;7.65;;;;;;;;;;5042450;28;20053;-74
2023/07/25 07:34:17;;;;;;;13.07;6.68;;;;;;;;;;5040067;28;20053;-73
2023/07/25 07:36:49;;;;;;;15.60;6.47;;;;;;;;;;5042040;28;20045;-74
2023/07/25 07:39:20;;;;;;;21.45;7.13;;;;;;;;;;5041582;28;20044;-74
2023/07/25 07:41:50;;;;;;;29.35;7.72;;;;;;;;;;5041924;28;20495;-74
2023/07/25 07:44:21;;;;;;;22.55;6.70;;;;;;;;;;5041497;28;20511;-74
2023/07/25 07:46:53;;;;;;;17.08;6.65;;;;;;;;;;5042173;28;20053;-73
2023/07/25 07:49:23;;;;;;;16.50;6.18;;;;;;;;;;5041820;28;20324;-74
2023/07/25 07:51:54;;;;;;;12.45;6.15;;;;;;;;;;5041337;28;20056;-74
2023/07/25 07:54:45;;;;;;;16.42;6.82;;;;;;;;;;5041696;28;20056;-74
2023/07/25 07:57:15;;;;;;;12.02;5.93;;;;;;;;;;5041733;28;20045;-74
2023/07/25 07:59:46;;;;;;;10.45;5.93;;;;;;;;;;5041587;28;20586;-74
2023/07/25 08:02:17;;;;;;;11.85;5.90;;;;;;;;;;5043189;28;20416;-75
2023/07/25 08:04:47;;;;;;;20.23;6.88;;;;;;;;;;5046196;28;20064;-74
2023/07/25 08:07:18;;;;;;;18.65;6.93;;;;;;;;;;5045937;28;20056;-74
2023/07/25 08:09:56;;;;;;;21.10;6.95;;;;;;;;;;5045051;28;20052;-74
2023/07/25 08:12:26;;;;;;;22.42;6.13;;;;;;;;;;5045226;28;20044;-73
2023/07/25 08:14:57;;;;;;;18.20;6.15;;;;;;;;;;5045302;28;20218;-74
2023/07/25 08:17:28;;;;;;;27.92;6.07;;;;;;;;;;5043412;28;20059;-74
2023/07/25 08:19:59;;;;;;;19.92;5.75;;;;;;;;;;5045190;28;20067;-74
2023/07/25 08:22:29;;;;;;;19.60;6.32;;;;;;;;;;5045057;28;20056;-74
2023/07/25 08:24:59;;;;;;;39.35;6.50;;;;;;;;;;5045167;28;20044;-74
2023/07/25 08:27:30;;;;;;;36.30;5.82;;;;;;;;;;5044782;28;20045;-74
2023/07/25 08:30:00;;;;;;;21.30;6.55;;;;;;;;;;5044864;28;20053;-74
2023/07/25 08:32:31;;;;;;;17.48;6.45;;;;;;;;;;5045461;28;20040;-75
2023/07/25 08:35:01;;;;;;;18.52;6.72;;;;;;;;;;5045140;28;20048;-74
2023/07/25 08:37:31;;;;;;;14.18;6.80;;;;;;;;;;5045652;28;20056;-74
2023/07/25 08:40:02;;;;;;;20.30;7.10;;;;;;;;;;5044023;28;20754;-75
2023/07/25 08:42:33;;;;;;;14.07;6.38;;;;;;;;;;5045408;28;20052;-75
2023/07/25 08:45:06;;;;;;;14.05;6.60;;;;;;;;;;5043785;28;20053;-74
2023/07/25 08:47:41;;;;;;;14.55;6.60;;;;;;;;;;5044806;28;20053;-74
2023/07/25 08:50:16;;;;;;;12.85;6.70;;;;;;;;;;5044478;28;20056;-75
2023/07/25 08:52:52;;;;;;;20.08;8.27;;;;;;;;;;5043075;28;20080;-75
2023/07/25 08:55:25;;;;;;;20.52;8.90;;;;;;;;;;5044562;28;20053;-74
2023/07/25 08:57:56;;;;;;;21.23;8.48;;;;;;;;;;5044500;28;20063;-74
2023/07/25 09:00:28;;;;;;;22.45;8.32;;;;;;;;;;5044814;28;20037;-75
2023/07/25 09:03:01;;;;;;;20.95;7.95;;;;;;;;;;5044377;28;20515;-77
2023/07/25 09:05:33;;;;;;;19.02;8.85;;;;;;;;;;5043075;28;20578;-74
2023/07/25 09:08:04;;;;;;;18.55;8.35;;;;;;;;;;5044854;28;20095;-74
2023/07/25 09:10:34;;;;;;;18.50;8.73;;;;;;;;;;5044205;28;20045;-75
2023/07/25 09:13:04;;;;;;;18.50;8.40;;;;;;;;;;5044170;28;20057;-74
2023/07/25 09:15:35;;;;;;;24.65;11.13;;;;;;;;;;5044557;28;20052;-74
2023/07/25 09:18:06;;;;;;;27.35;10.00;;;;;;;;;;5044729;28;20052;-75
2023/07/25 09:20:37;;;;;;;22.40;10.02;;;;;;;;;;5042185;28;20087;-75
2023/07/25 09:23:08;;;;;;;23.73;9.13;;;;;;;;;;5044011;28;20045;-74
2023/07/25 09:25:39;;;;;;;21.85;9.43;;;;;;;;;;5043649;28;20458;-74
2023/07/25 09:28:10;;;;;;;22.95;8.90;;;;;;;;;;5045296;28;20052;-75
2023/07/25 09:30:49;;;;;;;17.48;8.27;;;;;;;;;;5044626;28;20052;-74
2023/07/25 09:33:27;;;;;;;17.08;7.93;;;;;;;;;;5043859;28;20356;-74
2023/07/25 09:35:59;;;;;;;18.27;7.38;;;;;;;;;;5043647;28;20633;-74
2023/07/25 09:38:32;;;;;;;18.00;8.80;;;;;;;;;;5044126;28;20060;-74
2023/07/25 09:41:03;;;;;;;14.20;7.78;;;;;;;;;;5044065;28;20049;-74
2023/07/25 09:43:34;;;;;;;11.55;6.85;;;;;;;;;;5044565;28;20068;-74
2023/07/25 09:46:05;;;;;;;14.02;7.65;;;;;;;;;;5043618;28;20629;-74
2023/07/25 09:48:36;;;;;;;14.35;6.80;;;;;;;;;;5044348;28;20045;-77
2023/07/25 09:51:07;;;;;;;13.77;6.82;;;;;;;;;;5043717;28;20052;-75
2023/07/25 09:53:37;;;;;;;9.80;6.10;;;;;;;;;;5044343;28;20048;-75
2023/07/25 09:56:10;;;;;;;10.90;6.13;;;;;;;;;;5045401;28;20595;-75
2023/07/25 09:58:40;;;;;;;8.93;5.70;;;;;;;;;;5043482;28;20045;-75
2023/07/25 10:01:32;;;;;;;7.72;4.32;;;;;;;;;;5043901;28;20051;-75
2023/07/25 10:04:03;;;;;;;8.05;4.07;;;;;;;;;;5043295;28;20048;-74
2023/07/25 10:06:36;;;;;;;7.97;3.88;;;;;;;;;;5043309;28;20052;-75
2023/07/25 10:09:08;;;;;;;10.30;4.40;;;;;;;;;;5043354;28;20052;-75
2023/07/25 10:11:40;;;;;;;10.00;4.55;;;;;;;;;;5043606;28;20064;-74
2023/07/25 10:14:11;;;;;;;5.13;3.10;;;;;;;;;;5044022;28;20053;-75
2023/07/25 10:16:44;;;;;;;5.07;2.28;;;;;;;;;;5043298;28;20051;-75
2023/07/25 10:19:15;;;;;;;4.68;2.10;;;;;;;;;;5042915;28;20055;-75
2023/07/25 10:21:47;;;;;;;5.63;1.80;;;;;;;;;;5043082;28;20521;-76
2023/07/25 10:24:21;;;;;;;2.03;1.35;;;;;;;;;;5043419;28;20055;-75
2023/07/25 10:27:01;;;;;;;2.75;1.45;;;;;;;;;;5042868;28;20609;-73
2023/07/25 10:29:45;;;;;;;3.10;1.50;;;;;;;;;;5045768;28;20422;-76
2023/07/25 10:32:22;;;;;;;3.70;1.40;;;;;;;;;;5060376;28;20053;-74
2023/07/25 10:35:01;;;;;;;5.78;1.50;;;;;;;;;;5063055;28;20411;-74
2023/07/25 10:37:41;;;;;;;2.53;1.52;;;;;;;;;;5063363;28;20075;-75
2023/07/25 10:40:15;;;;;;;2.00;1.63;;;;;;;;;;5062735;28;20052;-77
2023/07/25 10:42:58;;;;;;;2.28;1.83;;;;;;;;;;5062605;28;20052;-74
2023/07/25 10:45:44;;;;;;;3.45;2.00;;;;;;;;;;5061473;28;20530;-76
2023/07/25 10:48:35;;;;;;;2.90;2.38;;;;;;;;;;5062639;28;20056;-77
2023/07/25 10:51:07;;;;;;;3.90;3.00;;;;;;;;;;5044987;28;20060;-74
2023/07/25 10:53:37;;;;;;;3.17;2.50;;;;;;;;;;5062704;28;20056;-75
2023/07/25 10:56:08;;;;;;;4.95;2.30;;;;;;;;;;5062344;28;20048;-74
2023/07/25 10:59:03;;;;;;;7.70;5.03;;;;;;;;;;5062864;28;20044;-74
2023/07/25 11:01:54;;;;;;;4.50;2.70;;;;;;;;;;5063150;28;20411;-75
2023/07/25 11:04:32;;;;;;;3.58;2.33;;;;;;;;;;5062484;28;20506;-79
2023/07/25 11:07:13;;;;;;;7.05;2.92;;;;;;;;;;5062204;28;20388;-76
2023/07/25 11:09:45;;;;;;;4.10;2.55;;;;;;;;;;5062337;28;20055;-75
2023/07/25 11:12:23;;;;;;;6.85;2.72;;;;;;;;;;5063166;28;20549;-73
2023/07/25 11:14:55;;;;;;;5.10;2.47;;;;;;;;;;5062528;28;20037;-74
2023/07/25 11:17:29;;;;;;;5.60;3.22;;;;;;;;;;5061941;28;20052;-80
2023/07/25 11:20:13;;;;;;;5.32;3.10;;;;;;;;;;5062201;28;20061;-75
2023/07/25 11:22:47;;;;;;;10.95;3.47;;;;;;;;;;5060027;28;20052;-75
2023/07/25 11:25:19;;;;;;;23.45;3.97;;;;;;;;;;5062015;28;20092;-75
2023/07/25 11:27:51;;;;;;;4.53;2.58;;;;;;;;;;5061988;28;20059;-75
2023/07/25 11:30:22;;;;;;;4.88;2.90;;;;;;;;;;5060692;28;20426;-73
2023/07/25 11:32:53;;;;;;;4.68;2.95;;;;;;;;;;5062358;28;20052;-72
2023/07/25 11:35:27;;;;;;;8.50;3.25;;;;;;;;;;5062008;28;20064;-73
2023/07/25 11:38:02;;;;;;;11.20;3.30;;;;;;;;;;5065078;28;20044;-80
2023/07/25 11:40:33;;;;;;;6.47;2.65;;;;;;;;;;5065370;28;20816;-74
2023/07/25 11:43:11;;;;;;;4.85;2.47;;;;;;;;;;5065964;28;20499;-73
2023/07/25 11:45:44;;;;;;;6.53;2.83;;;;;;;;;;5066464;28;20056;-73
2023/07/25 11:48:20;;;;;;;6.80;2.80;;;;;;;;;;5065012;28;20431;-75
2023/07/25 11:50:51;;;;;;;9.57;3.38;;;;;;;;;;5066047;28;20040;-76
2023/07/25 11:53:24;;;;;;;6.88;3.00;;;;;;;;;;5066604;28;20438;-75
2023/07/25 11:55:57;;;;;;;5.15;3.05;;;;;;;;;;5066207;28;20053;-74
2023/07/25 11:58:28;;;;;;;7.28;2.88;;;;;;;;;;5067493;28;20056;-77
2023/07/25 12:00:59;;;;;;;6.57;3.00;;;;;;;;;;5065865;28;20055;-75
2023/07/25 12:03:30;;;;;;;6.75;3.03;;;;;;;;;;5065762;28;20048;-75
2023/07/25 12:06:02;;;;;;;7.93;3.33;;;;;;;;;;5065669;28;20048;-75
2023/07/25 12:08:42;;;;;;;10.23;3.33;;;;;;;;;;5066278;28;20052;-76
2023/07/25 12:11:15;;;;;;;8.30;4.18;;;;;;;;;;5065589;28;20044;-75
2023/07/25 12:13:50;;;;;;;6.45;3.85;;;;;;;;;;5065238;28;20044;-76
2023/07/25 12:16:27;;;;;;;13.60;4.40;;;;;;;;;;5065752;28;20040;-75
2023/07/25 12:19:05;;;;;;;8.20;4.70;;;;;;;;;;5065673;28;20051;-76
2023/07/25 12:21:40;;;;;;;12.48;5.57;;;;;;;;;;5065391;28;20410;-74
2023/07/25 12:24:12;;;;;;;10.07;4.95;;;;;;;;;;5066451;28;20052;-73
2023/07/25 12:26:54;;;;;;;14.10;5.95;;;;;;;;;;5065095;28;20040;-75
2023/07/25 12:29:25;;;;;;;13.10;6.85;;;;;;;;;;5064975;28;20056;-76
2023/07/25 12:31:57;;;;;;;11.50;6.53;;;;;;;;;;5065139;28;20411;-76
2023/07/25 12:34:28;;;;;;;13.38;7.30;;;;;;;;;;5065252;28;20033;-75
2023/07/25 12:37:00;;;;;;;12.65;7.50;;;;;;;;;;5065203;28;20044;-76
2023/07/25 12:39:31;;;;;;;21.65;7.30;;;;;;;;;;5065685;28;20656;-75
2023/07/25 12:42:02;;;;;;;13.55;7.88;;;;;;;;;;5066678;28;20052;-80
2023/07/25 12:44:34;;;;;;;12.85;7.47;;;;;;;;;;5065040;28;20040;-76
2023/07/25 12:47:05;;;;;;;9.85;6.88;;;;;;;;;;5064484;28;20526;-76
2023/07/25 12:49:35;;;;;;;15.32;7.07;;;;;;;;;;5063859;28;20041;-75
2023/07/25 12:52:07;;;;;;;10.73;6.32;;;;;;;;;;5066482;28;20526;-75
2023/07/25 12:54:38;;;;;;;11.63;7.18;;;;;;;;;;5063504;28;20530;-81
2023/07/25 12:57:08;;;;;;;8.98;6.15;;;;;;;;;;5064889;28;20430;-76
2023/07/25 12:59:38;;;;;;;10.77;6.25;;;;;;;;;;5064676;28;20052;-76
2023/07/25 13:02:09;;;;;;;9.48;5.90;;;;;;;;;;5064315;28;20387;-74
2023/07/25 13:04:40;;;;;;;8.73;5.72;;;;;;;;;;5064783;28;20049;-75
2023/07/25 13:07:10;;;;;;;8.43;5.18;;;;;;;;;;5064681;28;20056;-76
2023/07/25 13:09:40;;;;;;;11.88;5.85;;;;;;;;;;5064265;28;20064;-75
2023/07/25 13:12:12;;;;;;;8.95;5.65;;;;;;;;;;5064595;28;20427;-75
2023/07/25 13:14:43;;;;;;;8.45;5.63;;;;;;;;;;5064881;28;20071;-75
2023/07/25 13:17:13;;;;;;;9.38;5.88;;;;;;;;;;5064781;28;20056;-77
2023/07/25 13:19:44;;;;;;;8.23;6.38;;;;;;;;;;5064089;28;20056;-75
2023/07/25 13:22:14;;;;;;;8.45;6.05;;;;;;;;;;5065510;28;20048;-75
2023/07/25 13:24:44;;;;;;;10.00;6.45;;;;;;;;;;5063852;28;20565;-78
2023/07/25 13:27:16;;;;;;;8.40;5.88;;;;;;;;;;5062947;28;20051;-75
2023/07/25 13:29:47;;;;;;;8.02;5.47;;;;;;;;;;5064199;28;20104;-75
2023/07/25 13:32:17;;;;;;;12.90;5.43;;;;;;;;;;5064795;28;20506;-75
2023/07/25 13:34:51;;;;;;;8.48;5.25;;;;;;;;;;5064061;28;20060;-75
2023/07/25 13:37:21;;;;;;;6.88;4.80;;;;;;;;;;5063394;28;20060;-75
2023/07/25 13:39:51;;;;;;;9.38;4.70;;;;;;;;;;5063780;28;20530;-75
2023/07/25 13:42:22;;;;;;;7.20;4.70;;;;;;;;;;5063971;28;20053;-75
2023/07/25 13:44:53;;;;;;;7.25;5.22;;;;;;;;;;5063747;28;20412;-75
2023/07/25 13:47:25;;;;;;;10.27;4.45;;;;;;;;;;5062682;28;20056;-75
2023/07/25 13:49:58;;;;;;;7.22;4.50;;;;;;;;;;5064219;28;20052;-79
2023/07/25 13:52:28;;;;;;;8.45;5.30;;;;;;;;;;5063531;28;20036;-75
2023/07/25 13:55:00;;;;;;;9.77;4.43;;;;;;;;;;5063732;28;20044;-75
2023/07/25 13:57:31;;;;;;;5.03;3.88;;;;;;;;;;5063502;28;20059;-75
2023/07/25 14:00:07;;;;;;;6.13;4.28;;;;;;;;;;5062726;28;20511;-75
2023/07/25 14:02:38;;;;;;;7.07;4.13;;;;;;;;;;5063825;28;20048;-75
2023/07/25 14:05:09;;;;;;;6.18;4.35;;;;;;;;;;5063415;28;20048;-80
2023/07/25 14:07:40;;;;;;;5.97;4.10;;;;;;;;;;5063760;28;20052;-75
2023/07/25 14:10:11;;;;;;;5.55;3.88;;;;;;;;;;5063500;28;20052;-75
2023/07/25 14:12:42;;;;;;;7.80;4.43;;;;;;;;;;5063290;28;20041;-75
2023/07/25 14:15:13;;;;;;;8.00;4.72;;;;;;;;;;5063208;28;20525;-75
2023/07/25 14:17:44;;;;;;;6.10;4.00;;;;;;;;;;5063548;28;20415;-75
2023/07/25 14:20:16;;;;;;;5.47;4.07;;;;;;;;;;5062839;28;20064;-75
2023/07/25 14:22:46;;;;;;;5.63;4.03;;;;;;;;;;5063196;28;20049;-75
2023/07/25 14:25:17;;;;;;;7.20;4.53;;;;;;;;;;5062305;28;20044;-75
2023/07/25 14:27:48;;;;;;;7.97;4.20;;;;;;;;;;5062720;28;20051;-75
2023/07/25 14:30:19;;;;;;;5.85;4.28;;;;;;;;;;5062955;28;20052;-75
2023/07/25 14:32:49;;;;;;;6.82;4.72;;;;;;;;;;5062689;28;20166;-75
2023/07/25 14:35:19;;;;;;;5.97;4.03;;;;;;;;;;5063376;28;20056;-75
2023/07/25 14:37:50;;;;;;;6.68;4.25;;;;;;;;;;5063346;28;20492;-75
2023/07/25 14:40:27;;;;;;;6.13;4.18;;;;;;;;;;5063940;28;20398;-75
2023/07/25 14:42:57;;;;;;;7.93;4.55;;;;;;;;;;5064297;28;20048;-75
2023/07/25 14:45:27;;;;;;;7.90;4.95;;;;;;;;;;5063024;28;20053;-75
2023/07/25 14:47:59;;;;;;;7.68;4.18;;;;;;;;;;5061130;28;20079;-76
2023/07/25 14:50:30;;;;;;;7.68;4.95;;;;;;;;;;5062884;28;20681;-75
2023/07/25 14:53:01;;;;;;;7.05;4.78;;;;;;;;;;5063090;28;20503;-75
2023/07/25 14:55:32;;;;;;;8.25;4.50;;;;;;;;;;5063037;28;20048;-76
2023/07/25 14:58:03;;;;;;;7.28;4.63;;;;;;;;;;5062611;28;20049;-76
2023/07/25 15:00:35;;;;;;;9.02;4.47;;;;;;;;;;5062003;28;20041;-75
2023/07/25 15:03:05;;;;;;;14.18;4.88;;;;;;;;;;5062837;28;20060;-80